createdAt,value
2022-09-11T00:00:02.290Z,90.00
2022-09-11T00:00:33.833Z,90.00
2022-09-11T00:01:05.372Z,90.00
2022-09-11T00:01:36.969Z,90.00
2022-09-11T00:02:08.606Z,90.00
2022-09-11T00:02:40.305Z,90.00
2022-09-11T00:03:11.869Z,90.00
2022-09-11T00:03:43.409Z,90.00
2022-09-11T00:04:14.985Z,90.00
2022-09-11T00:04:46.544Z,90.00
2022-09-11T00:05:18.119Z,90.00
2022-09-11T00:05:49.686Z,90.00
2022-09-11T00:06:29.443Z,90.00
2022-09-11T00:07:01.875Z,90.00
2022-09-11T00:07:33.443Z,90.00
2022-09-11T00:08:04.994Z,90.00
2022-09-11T00:08:36.541Z,90.00
2022-09-11T00:09:08.091Z,90.00
2022-09-11T00:09:39.644Z,90.00
2022-09-11T00:10:11.232Z,90.00
2022-09-11T00:10:42.784Z,90.00
2022-09-11T00:11:14.340Z,90.00
2022-09-11T00:11:45.923Z,90.00
2022-09-11T00:12:17.457Z,90.00
2022-09-11T00:12:49.043Z,90.00
2022-09-11T00:13:20.597Z,90.00
2022-09-11T00:13:52.153Z,90.00
2022-09-11T00:14:23.728Z,90.00
2022-09-11T00:14:55.271Z,90.00
2022-09-11T00:15:26.810Z,90.00
2022-09-11T00:15:58.415Z,90.00
2022-09-11T00:16:30.076Z,90.00
2022-09-11T00:17:01.698Z,90.00
2022-09-11T00:17:33.254Z,90.00
2022-09-11T00:18:04.800Z,90.00
2022-09-11T00:18:36.364Z,90.00
2022-09-11T00:19:07.921Z,90.00
2022-09-11T00:19:39.503Z,90.40
2022-09-11T00:20:11.075Z,90.00
2022-09-11T00:20:42.647Z,90.00
2022-09-11T00:21:14.211Z,90.00
2022-09-11T00:21:45.747Z,90.00
2022-09-11T00:22:17.303Z,90.00
2022-09-11T00:22:48.885Z,90.00
2022-09-11T00:23:20.427Z,90.00
2022-09-11T00:23:51.963Z,90.00
2022-09-11T00:24:23.508Z,90.10
2022-09-11T00:24:55.182Z,90.10
2022-09-11T00:25:26.713Z,90.10
2022-09-11T00:25:58.289Z,90.10
2022-09-11T00:26:29.864Z,90.10
2022-09-11T00:27:01.417Z,90.10
2022-09-11T00:27:32.945Z,90.10
2022-09-11T00:28:04.485Z,90.10
2022-09-11T00:28:36.023Z,90.10
2022-09-11T00:29:07.559Z,90.10
2022-09-11T00:29:39.106Z,90.00
2022-09-11T00:30:10.659Z,90.10
2022-09-11T00:30:42.227Z,90.10
2022-09-11T00:31:13.841Z,90.10
2022-09-11T00:31:45.545Z,90.40
2022-09-11T00:32:17.115Z,90.00
2022-09-11T00:32:48.651Z,90.10
2022-09-11T00:33:20.196Z,90.10
2022-09-11T00:33:51.726Z,90.10
2022-09-11T00:34:23.283Z,90.10
2022-09-11T00:34:54.829Z,90.10
2022-09-11T00:35:26.402Z,90.10
2022-09-11T00:35:57.985Z,90.00
2022-09-11T00:36:29.549Z,90.00
2022-09-11T00:37:01.108Z,90.00
2022-09-11T00:37:32.660Z,90.10
2022-09-11T00:38:04.201Z,90.10
2022-09-11T00:38:35.740Z,90.10
2022-09-11T00:39:07.277Z,90.10
2022-09-11T00:39:38.847Z,90.10
2022-09-11T00:40:10.420Z,90.10
2022-09-11T00:40:41.961Z,90.00
2022-09-11T00:41:13.509Z,90.10
2022-09-11T00:41:45.105Z,90.10
2022-09-11T00:42:16.702Z,90.40
2022-09-11T00:42:48.256Z,90.10
2022-09-11T00:43:19.802Z,90.00
2022-09-11T00:43:51.355Z,90.00
2022-09-11T00:44:22.905Z,90.00
2022-09-11T00:44:54.455Z,90.00
2022-09-11T00:45:26.006Z,90.10
2022-09-11T00:45:57.681Z,90.10
2022-09-11T00:46:29.275Z,90.10
2022-09-11T00:47:00.851Z,90.00
2022-09-11T00:47:32.405Z,90.10
2022-09-11T00:48:03.944Z,90.00
2022-09-11T00:48:35.520Z,90.10
2022-09-11T00:49:07.069Z,90.00
2022-09-11T00:49:38.632Z,90.10
2022-09-11T00:50:10.189Z,90.10
2022-09-11T00:50:41.729Z,90.10
2022-09-11T00:51:13.273Z,90.10
2022-09-11T00:51:44.814Z,90.00
2022-09-11T00:52:16.384Z,90.00
2022-09-11T00:52:51.205Z,90.00
2022-09-11T00:53:24.671Z,90.00
2022-09-11T00:53:56.230Z,90.40
2022-09-11T00:54:27.801Z,90.00
2022-09-11T00:54:59.358Z,90.00
2022-09-11T00:55:30.919Z,90.10
2022-09-11T00:56:02.476Z,90.10
2022-09-11T00:56:34.027Z,90.10
2022-09-11T00:57:05.586Z,90.10
2022-09-11T00:57:37.240Z,90.10
2022-09-11T00:58:08.799Z,90.10
2022-09-11T00:58:40.369Z,90.10
2022-09-11T00:59:11.912Z,90.10
2022-09-11T00:59:43.468Z,90.10
2022-09-11T01:00:15.021Z,90.10
2022-09-11T01:00:46.588Z,90.00
2022-09-11T01:01:18.202Z,90.00
2022-09-11T01:01:49.817Z,90.10
2022-09-11T01:02:25.426Z,90.00
2022-09-11T01:02:58.809Z,90.00
2022-09-11T01:03:30.343Z,90.00
2022-09-11T01:04:01.874Z,90.00
2022-09-11T01:04:33.437Z,90.10
2022-09-11T01:05:04.977Z,90.10
2022-09-11T01:05:36.529Z,90.00
2022-09-11T01:06:11.007Z,90.00
2022-09-11T01:06:42.547Z,90.10
2022-09-11T01:07:14.100Z,90.10
2022-09-11T01:07:45.682Z,90.00
2022-09-11T01:08:17.223Z,90.00
2022-09-11T01:08:48.763Z,90.00
2022-09-11T01:09:20.319Z,90.00
2022-09-11T01:09:51.859Z,90.00
2022-09-11T01:10:23.408Z,90.00
2022-09-11T01:10:54.975Z,90.00
2022-09-11T01:11:26.568Z,90.00
2022-09-11T01:11:58.146Z,90.00
2022-09-11T01:12:29.720Z,90.00
2022-09-11T01:13:01.274Z,90.00
2022-09-11T01:13:32.865Z,90.00
2022-09-11T01:14:04.485Z,90.00
2022-09-11T01:14:36.052Z,90.00
2022-09-11T01:15:07.606Z,90.10
2022-09-11T01:15:39.154Z,90.00
2022-09-11T01:16:10.788Z,90.00
2022-09-11T01:16:42.414Z,90.10
2022-09-11T01:17:13.964Z,90.00
2022-09-11T01:17:45.518Z,90.10
2022-09-11T01:18:17.087Z,90.10
2022-09-11T01:18:48.643Z,90.10
2022-09-11T01:19:20.208Z,90.40
2022-09-11T01:19:51.755Z,90.10
2022-09-11T01:20:23.319Z,90.10
2022-09-11T01:20:54.879Z,90.10
2022-09-11T01:21:26.451Z,90.10
2022-09-11T01:21:58.065Z,90.10
2022-09-11T01:22:29.636Z,90.10
2022-09-11T01:23:01.204Z,90.10
2022-09-11T01:23:32.793Z,90.10
2022-09-11T01:24:04.390Z,90.00
2022-09-11T01:24:36.003Z,90.00
2022-09-11T01:25:07.550Z,90.00
2022-09-11T01:25:39.105Z,90.10
2022-09-11T01:26:10.653Z,90.10
2022-09-11T01:26:42.214Z,90.10
2022-09-11T01:27:13.794Z,90.10
2022-09-11T01:27:45.353Z,90.00
2022-09-11T01:28:16.920Z,90.00
2022-09-11T01:28:48.486Z,90.10
2022-09-11T01:29:20.045Z,90.00
2022-09-11T01:29:51.602Z,90.00
2022-09-11T01:30:23.151Z,90.00
2022-09-11T01:30:54.720Z,90.40
2022-09-11T01:31:26.312Z,90.00
2022-09-11T01:31:57.878Z,90.00
2022-09-11T01:32:29.440Z,90.00
2022-09-11T01:33:00.997Z,90.00
2022-09-11T01:33:32.535Z,90.00
2022-09-11T01:34:04.092Z,90.00
2022-09-11T01:34:35.663Z,90.00
2022-09-11T01:35:07.258Z,90.00
2022-09-11T01:35:38.812Z,90.00
2022-09-11T01:36:10.365Z,90.00
2022-09-11T01:36:41.924Z,90.00
2022-09-11T01:37:13.480Z,90.00
2022-09-11T01:37:45.049Z,90.20
2022-09-11T01:38:16.597Z,90.00
2022-09-11T01:38:48.149Z,90.00
2022-09-11T01:39:19.765Z,90.00
2022-09-11T01:39:51.350Z,90.00
2022-09-11T01:40:22.941Z,90.00
2022-09-11T01:40:54.485Z,90.00
2022-09-11T01:41:26.044Z,90.00
2022-09-11T01:41:57.611Z,90.00
2022-09-11T01:42:29.198Z,90.00
2022-09-11T01:43:00.770Z,90.00
2022-09-11T01:43:32.310Z,90.00
2022-09-11T01:44:03.926Z,90.00
2022-09-11T01:44:35.507Z,90.00
2022-09-11T01:45:07.064Z,90.00
2022-09-11T01:45:38.640Z,90.00
2022-09-11T01:46:10.218Z,90.00
2022-09-11T01:46:41.767Z,90.00
2022-09-11T01:47:13.323Z,90.00
2022-09-11T01:47:44.911Z,90.00
2022-09-11T01:48:16.496Z,90.00
2022-09-11T01:48:48.056Z,90.00
2022-09-11T01:49:19.618Z,90.00
2022-09-11T01:49:51.160Z,90.00
2022-09-11T01:50:22.700Z,90.00
2022-09-11T01:50:54.243Z,90.00
2022-09-11T01:51:25.793Z,90.00
2022-09-11T01:51:57.333Z,90.00
2022-09-11T01:52:28.909Z,90.00
2022-09-11T01:53:00.474Z,90.30
2022-09-11T01:53:32.020Z,90.00
2022-09-11T01:54:03.621Z,90.00
2022-09-11T01:54:35.192Z,90.00
2022-09-11T01:55:06.755Z,90.00
2022-09-11T01:55:38.321Z,90.00
2022-09-11T01:56:09.907Z,90.00
2022-09-11T01:56:41.472Z,90.00
2022-09-11T01:57:13.015Z,90.00
2022-09-11T01:57:44.559Z,90.00
2022-09-11T01:58:16.130Z,90.00
2022-09-11T01:58:47.691Z,90.00
2022-09-11T01:59:19.290Z,90.00
2022-09-11T01:59:50.835Z,90.00
2022-09-11T02:00:22.445Z,90.00
2022-09-11T02:00:54.037Z,90.00
2022-09-11T02:01:25.604Z,90.00
2022-09-11T02:01:57.204Z,90.00
2022-09-11T02:02:28.758Z,90.00
2022-09-11T02:03:00.330Z,89.90
2022-09-11T02:03:31.881Z,90.00
2022-09-11T02:04:03.433Z,90.00
2022-09-11T02:04:34.986Z,90.00
2022-09-11T02:05:06.555Z,90.00
2022-09-11T02:05:38.097Z,90.00
2022-09-11T02:06:09.645Z,90.00
2022-09-11T02:06:41.206Z,90.00
2022-09-11T02:07:12.738Z,90.00
2022-09-11T02:07:44.318Z,90.00
2022-09-11T02:08:15.880Z,90.00
2022-09-11T02:08:47.419Z,90.00
2022-09-11T02:09:18.966Z,90.00
2022-09-11T02:09:50.548Z,90.00
2022-09-11T02:10:22.126Z,90.00
2022-09-11T02:10:53.671Z,90.00
2022-09-11T02:11:25.223Z,90.00
2022-09-11T02:11:56.779Z,90.00
2022-09-11T02:12:28.331Z,90.00
2022-09-11T02:12:59.929Z,90.00
2022-09-11T02:13:31.475Z,90.00
2022-09-11T02:14:03.050Z,90.00
2022-09-11T02:14:34.614Z,90.00
2022-09-11T02:15:06.159Z,90.00
2022-09-11T02:15:37.703Z,90.00
2022-09-11T02:16:09.330Z,90.00
2022-09-11T02:16:40.978Z,90.00
2022-09-11T02:17:12.536Z,90.00
2022-09-11T02:17:44.086Z,90.00
2022-09-11T02:18:15.634Z,90.00
2022-09-11T02:18:47.199Z,90.00
2022-09-11T02:19:18.754Z,90.00
2022-09-11T02:19:50.307Z,90.00
2022-09-11T02:20:21.858Z,90.00
2022-09-11T02:20:53.423Z,90.00
2022-09-11T02:21:25.011Z,90.40
2022-09-11T02:21:56.559Z,90.00
2022-09-11T02:22:28.108Z,90.00
2022-09-11T02:22:59.672Z,90.00
2022-09-11T02:23:31.213Z,90.00
2022-09-11T02:24:02.765Z,90.00
2022-09-11T02:24:34.329Z,90.00
2022-09-11T02:25:05.880Z,90.00
2022-09-11T02:25:37.429Z,90.00
2022-09-11T02:26:08.979Z,90.00
2022-09-11T02:26:40.604Z,90.00
2022-09-11T02:27:12.156Z,90.00
2022-09-11T02:27:43.710Z,89.90
2022-09-11T02:28:15.281Z,89.90
2022-09-11T02:28:46.818Z,90.00
2022-09-11T02:29:18.378Z,90.00
2022-09-11T02:29:49.918Z,90.00
2022-09-11T02:30:21.459Z,89.90
2022-09-11T02:30:53.018Z,89.90
2022-09-11T02:31:24.583Z,90.00
2022-09-11T02:31:56.163Z,90.00
2022-09-11T02:32:27.726Z,90.30
2022-09-11T02:32:59.286Z,90.00
2022-09-11T02:33:30.826Z,90.00
2022-09-11T02:34:02.384Z,90.00
2022-09-11T02:34:33.947Z,90.00
2022-09-11T02:35:05.491Z,90.00
2022-09-11T02:35:37.033Z,90.00
2022-09-11T02:36:08.588Z,90.00
2022-09-11T02:36:40.180Z,90.00
2022-09-11T02:37:11.724Z,90.00
2022-09-11T02:37:43.280Z,89.90
2022-09-11T02:38:14.824Z,90.00
2022-09-11T02:38:46.366Z,90.00
2022-09-11T02:39:17.953Z,90.00
2022-09-11T02:39:49.528Z,90.00
2022-09-11T02:40:21.109Z,90.00
2022-09-11T02:40:52.662Z,90.00
2022-09-11T02:41:24.213Z,90.00
2022-09-11T02:41:55.762Z,90.00
2022-09-11T02:42:27.310Z,90.00
2022-09-11T02:42:58.870Z,90.00
2022-09-11T02:43:30.414Z,90.00
2022-09-11T02:44:01.955Z,90.30
2022-09-11T02:44:33.535Z,90.00
2022-09-11T02:45:05.159Z,90.00
2022-09-11T02:45:36.789Z,90.30
2022-09-11T02:46:08.379Z,90.00
2022-09-11T02:46:40.038Z,90.00
2022-09-11T02:47:11.625Z,90.00
2022-09-11T02:47:43.180Z,90.00
2022-09-11T02:48:14.720Z,90.00
2022-09-11T02:48:46.299Z,90.00
2022-09-11T02:49:17.850Z,90.00
2022-09-11T02:49:49.401Z,90.00
2022-09-11T02:50:20.977Z,90.00
2022-09-11T02:50:52.523Z,90.00
2022-09-11T02:51:24.069Z,90.00
2022-09-11T02:51:55.635Z,90.00
2022-09-11T02:52:27.223Z,90.00
2022-09-11T02:52:58.779Z,90.00
2022-09-11T02:53:30.330Z,90.00
2022-09-11T02:54:01.895Z,90.00
2022-09-11T02:54:33.469Z,90.00
2022-09-11T02:55:05.022Z,90.00
2022-09-11T02:55:36.611Z,90.00
2022-09-11T02:56:08.171Z,90.00
2022-09-11T02:56:39.707Z,89.90
2022-09-11T02:57:11.301Z,90.00
2022-09-11T02:57:42.853Z,89.90
2022-09-11T02:58:14.399Z,89.90
2022-09-11T02:58:45.957Z,89.90
2022-09-11T02:59:17.532Z,89.90
2022-09-11T02:59:49.072Z,89.90
2022-09-11T03:00:20.624Z,89.90
2022-09-11T03:00:52.248Z,89.90
2022-09-11T03:01:23.804Z,89.90
2022-09-11T03:01:55.512Z,89.90
2022-09-11T03:02:27.121Z,89.90
2022-09-11T03:02:58.666Z,89.90
2022-09-11T03:03:30.216Z,89.90
2022-09-11T03:04:01.757Z,89.90
2022-09-11T03:04:33.322Z,89.90
2022-09-11T03:05:04.878Z,89.90
2022-09-11T03:05:36.427Z,90.00
2022-09-11T03:06:07.987Z,90.00
2022-09-11T03:06:39.535Z,90.00
2022-09-11T03:07:11.111Z,90.00
2022-09-11T03:07:42.782Z,90.00
2022-09-11T03:08:14.331Z,90.30
2022-09-11T03:08:45.886Z,90.00
2022-09-11T03:09:17.435Z,90.00
2022-09-11T03:09:48.991Z,90.00
2022-09-11T03:10:20.555Z,90.00
2022-09-11T03:10:52.116Z,90.00
2022-09-11T03:11:23.711Z,90.00
2022-09-11T03:11:55.254Z,90.00
2022-09-11T03:12:26.833Z,90.00
2022-09-11T03:12:58.401Z,90.00
2022-09-11T03:13:29.941Z,90.00
2022-09-11T03:14:01.497Z,90.00
2022-09-11T03:14:33.065Z,90.30
2022-09-11T03:15:04.611Z,90.00
2022-09-11T03:15:36.185Z,90.00
2022-09-11T03:16:07.792Z,90.00
2022-09-11T03:16:39.440Z,90.00
2022-09-11T03:17:11.017Z,90.00
2022-09-11T03:17:42.562Z,90.00
2022-09-11T03:18:14.111Z,90.00
2022-09-11T03:18:45.654Z,90.00
2022-09-11T03:19:17.204Z,90.00
2022-09-11T03:19:48.750Z,90.00
2022-09-11T03:20:20.327Z,89.90
2022-09-11T03:20:51.874Z,90.00
2022-09-11T03:21:23.440Z,89.90
2022-09-11T03:21:54.996Z,90.00
2022-09-11T03:22:26.571Z,89.90
2022-09-11T03:22:58.143Z,89.90
2022-09-11T03:23:29.693Z,89.90
2022-09-11T03:24:01.244Z,89.80
2022-09-11T03:24:32.821Z,89.90
2022-09-11T03:25:04.369Z,89.90
2022-09-11T03:25:35.949Z,89.90
2022-09-11T03:26:07.533Z,89.90
2022-09-11T03:26:39.122Z,89.80
2022-09-11T03:27:10.677Z,89.70
2022-09-11T03:27:42.261Z,89.90
2022-09-11T03:28:13.801Z,89.90
2022-09-11T03:28:45.353Z,89.80
2022-09-11T03:29:16.898Z,89.90
2022-09-11T03:29:48.454Z,89.90
2022-09-11T03:30:20.006Z,89.90
2022-09-11T03:30:51.555Z,89.90
2022-09-11T03:31:23.104Z,90.00
2022-09-11T03:31:54.739Z,89.90
2022-09-11T03:32:26.350Z,90.00
2022-09-11T03:32:57.907Z,90.00
2022-09-11T03:33:29.467Z,89.90
2022-09-11T03:34:01.019Z,90.00
2022-09-11T03:34:32.611Z,90.00
2022-09-11T03:35:04.160Z,90.00
2022-09-11T03:35:35.710Z,89.90
2022-09-11T03:36:07.264Z,89.90
2022-09-11T03:36:38.827Z,90.00
2022-09-11T03:37:10.400Z,90.00
2022-09-11T03:37:41.940Z,89.90
2022-09-11T03:38:13.479Z,89.90
2022-09-11T03:38:45.029Z,89.90
2022-09-11T03:39:16.576Z,90.00
2022-09-11T03:39:48.190Z,89.90
2022-09-11T03:40:19.773Z,89.90
2022-09-11T03:40:51.319Z,89.90
2022-09-11T03:41:22.873Z,90.00
2022-09-11T03:41:54.422Z,90.00
2022-09-11T03:42:26.002Z,89.90
2022-09-11T03:42:57.551Z,89.90
2022-09-11T03:43:29.098Z,89.90
2022-09-11T03:44:00.651Z,89.90
2022-09-11T03:44:32.214Z,89.90
2022-09-11T03:45:03.772Z,90.00
2022-09-11T03:45:35.384Z,89.90
2022-09-11T03:46:06.997Z,89.90
2022-09-11T03:46:38.587Z,90.00
2022-09-11T03:47:10.132Z,90.00
2022-09-11T03:47:41.688Z,89.90
2022-09-11T03:48:13.254Z,89.90
2022-09-11T03:48:44.804Z,89.90
2022-09-11T03:49:16.363Z,89.90
2022-09-11T03:49:47.905Z,90.00
2022-09-11T03:50:19.468Z,90.00
2022-09-11T03:50:51.023Z,90.00
2022-09-11T03:51:22.562Z,90.00
2022-09-11T03:51:54.137Z,89.90
2022-09-11T03:52:25.750Z,89.90
2022-09-11T03:52:57.300Z,89.90
2022-09-11T03:53:28.846Z,89.90
2022-09-11T03:54:00.410Z,89.80
2022-09-11T03:54:31.986Z,89.80
2022-09-11T03:55:03.546Z,89.70
2022-09-11T03:55:35.102Z,89.80
2022-09-11T03:56:06.664Z,89.70
2022-09-11T03:56:38.234Z,89.70
2022-09-11T03:57:09.792Z,89.80
2022-09-11T03:57:41.339Z,89.70
2022-09-11T03:58:12.879Z,89.80
2022-09-11T03:58:44.435Z,89.80
2022-09-11T03:59:15.980Z,89.80
2022-09-11T03:59:47.548Z,89.80
2022-09-11T04:00:19.103Z,89.90
2022-09-11T04:00:50.717Z,89.90
2022-09-11T04:01:22.285Z,89.90
2022-09-11T04:01:53.933Z,89.80
2022-09-11T04:02:25.505Z,89.90
2022-09-11T04:02:57.078Z,90.20
2022-09-11T04:03:28.618Z,89.90
2022-09-11T04:04:00.182Z,89.90
2022-09-11T04:04:31.746Z,89.90
2022-09-11T04:05:03.297Z,90.00
2022-09-11T04:05:34.829Z,89.90
2022-09-11T04:06:06.374Z,89.90
2022-09-11T04:06:37.914Z,89.90
2022-09-11T04:07:09.479Z,89.90
2022-09-11T04:07:41.059Z,89.90
2022-09-11T04:08:12.655Z,89.90
2022-09-11T04:08:44.208Z,90.00
2022-09-11T04:09:15.778Z,89.90
2022-09-11T04:09:47.317Z,89.90
2022-09-11T04:10:18.860Z,89.90
2022-09-11T04:10:50.396Z,89.90
2022-09-11T04:11:21.967Z,90.00
2022-09-11T04:11:53.512Z,90.00
2022-09-11T04:12:25.052Z,90.00
2022-09-11T04:12:56.632Z,89.90
2022-09-11T04:13:28.192Z,89.90
2022-09-11T04:13:59.742Z,89.90
2022-09-11T04:14:31.295Z,89.90
2022-09-11T04:15:02.850Z,90.00
2022-09-11T04:15:34.402Z,90.00
2022-09-11T04:16:06.013Z,89.90
2022-09-11T04:16:37.650Z,89.90
2022-09-11T04:17:09.224Z,89.90
2022-09-11T04:17:40.815Z,89.90
2022-09-11T04:18:12.378Z,90.00
2022-09-11T04:18:43.932Z,90.00
2022-09-11T04:19:15.491Z,90.00
2022-09-11T04:19:47.024Z,89.90
2022-09-11T04:20:18.571Z,89.90
2022-09-11T04:20:50.127Z,89.90
2022-09-11T04:21:21.679Z,89.90
2022-09-11T04:21:53.263Z,89.90
2022-09-11T04:22:24.807Z,89.80
2022-09-11T04:22:56.353Z,89.80
2022-09-11T04:23:27.899Z,89.80
2022-09-11T04:23:59.440Z,89.70
2022-09-11T04:24:31.000Z,89.70
2022-09-11T04:25:02.537Z,89.70
2022-09-11T04:25:34.076Z,89.70
2022-09-11T04:26:05.613Z,89.70
2022-09-11T04:26:37.237Z,89.70
2022-09-11T04:27:08.778Z,89.70
2022-09-11T04:27:40.317Z,89.70
2022-09-11T04:28:11.862Z,89.70
2022-09-11T04:28:43.419Z,89.70
2022-09-11T04:29:14.986Z,89.70
2022-09-11T04:29:46.532Z,89.70
2022-09-11T04:30:18.073Z,89.70
2022-09-11T04:30:49.635Z,89.90
2022-09-11T04:31:21.285Z,89.80
2022-09-11T04:31:52.948Z,89.90
2022-09-11T04:32:24.551Z,89.80
2022-09-11T04:32:56.102Z,89.70
2022-09-11T04:33:27.647Z,89.90
2022-09-11T04:33:59.204Z,89.90
2022-09-11T04:34:30.771Z,89.80
2022-09-11T04:35:02.327Z,89.80
2022-09-11T04:35:33.877Z,89.80
2022-09-11T04:36:05.419Z,89.80
2022-09-11T04:36:37.009Z,89.90
2022-09-11T04:37:08.557Z,89.90
2022-09-11T04:37:40.112Z,89.90
2022-09-11T04:38:11.685Z,89.90
2022-09-11T04:38:43.235Z,89.90
2022-09-11T04:39:14.801Z,89.90
2022-09-11T04:39:46.380Z,89.90
2022-09-11T04:40:17.933Z,89.90
2022-09-11T04:40:49.529Z,89.90
2022-09-11T04:41:21.069Z,89.90
2022-09-11T04:41:52.642Z,89.90
2022-09-11T04:42:24.217Z,89.80
2022-09-11T04:42:55.775Z,89.80
2022-09-11T04:43:27.315Z,89.90
2022-09-11T04:44:03.925Z,89.80
2022-09-11T04:44:36.606Z,89.80
2022-09-11T04:45:08.147Z,89.70
2022-09-11T04:45:39.724Z,89.70
2022-09-11T04:46:11.291Z,89.70
2022-09-11T04:46:42.844Z,89.70
2022-09-11T04:47:14.389Z,89.70
2022-09-11T04:47:45.937Z,89.70
2022-09-11T04:48:17.485Z,89.70
2022-09-11T04:48:49.037Z,89.70
2022-09-11T04:49:20.612Z,89.70
2022-09-11T04:49:52.166Z,89.70
2022-09-11T04:50:23.706Z,89.60
2022-09-11T04:50:55.269Z,89.60
2022-09-11T04:51:29.051Z,89.60
2022-09-11T04:52:00.774Z,89.60
2022-09-11T04:52:32.321Z,89.50
2022-09-11T04:53:03.865Z,89.50
2022-09-11T04:53:35.406Z,89.50
2022-09-11T04:54:06.958Z,89.50
2022-09-11T04:54:38.516Z,89.50
2022-09-11T04:55:10.070Z,89.40
2022-09-11T04:55:41.623Z,89.40
2022-09-11T04:56:13.214Z,89.50
2022-09-11T04:56:44.787Z,89.50
2022-09-11T04:57:16.338Z,90.00
2022-09-11T04:57:47.901Z,89.50
2022-09-11T04:58:19.488Z,89.50
2022-09-11T04:58:51.040Z,89.50
2022-09-11T04:59:22.622Z,89.50
2022-09-11T04:59:54.179Z,89.50
2022-09-11T05:00:25.744Z,89.50
2022-09-11T05:00:57.303Z,89.50
2022-09-11T05:01:28.886Z,89.50
2022-09-11T05:02:00.548Z,89.40
2022-09-11T05:02:32.166Z,89.40
2022-09-11T05:03:03.734Z,89.50
2022-09-11T05:03:35.341Z,89.40
2022-09-11T05:04:06.884Z,89.50
2022-09-11T05:04:38.466Z,89.50
2022-09-11T05:05:10.028Z,89.40
2022-09-11T05:05:41.591Z,89.40
2022-09-11T05:06:13.136Z,89.50
2022-09-11T05:06:44.699Z,89.50
2022-09-11T05:07:16.270Z,89.50
2022-09-11T05:07:47.829Z,90.00
2022-09-11T05:08:19.371Z,89.40
2022-09-11T05:08:50.927Z,89.50
2022-09-11T05:09:22.489Z,89.50
2022-09-11T05:09:54.053Z,89.50
2022-09-11T05:10:25.614Z,89.50
2022-09-11T05:10:57.169Z,90.00
2022-09-11T05:11:28.722Z,89.40
2022-09-11T05:12:00.321Z,89.40
2022-09-11T05:12:31.879Z,89.50
2022-09-11T05:13:03.426Z,89.50
2022-09-11T05:13:36.591Z,89.40
2022-09-11T05:14:08.300Z,89.50
2022-09-11T05:14:39.849Z,89.50
2022-09-11T05:15:11.391Z,89.50
2022-09-11T05:15:42.930Z,89.40
2022-09-11T05:16:14.561Z,89.50
2022-09-11T05:16:46.204Z,89.50
2022-09-11T05:17:17.834Z,89.40
2022-09-11T05:17:49.386Z,89.40
2022-09-11T05:18:20.931Z,89.50
2022-09-11T05:18:52.504Z,89.50
2022-09-11T05:19:24.072Z,89.50
2022-09-11T05:19:55.615Z,89.40
2022-09-11T05:20:27.170Z,89.50
2022-09-11T05:20:58.713Z,89.40
2022-09-11T05:21:30.252Z,89.30
2022-09-11T05:22:01.811Z,89.30
2022-09-11T05:22:33.396Z,89.30
2022-09-11T05:23:04.944Z,89.30
2022-09-11T05:23:36.476Z,89.30
2022-09-11T05:24:08.028Z,89.20
2022-09-11T05:24:39.568Z,89.30
2022-09-11T05:25:11.109Z,89.30
2022-09-11T05:25:42.659Z,89.30
2022-09-11T05:26:14.221Z,89.30
2022-09-11T05:26:45.765Z,89.20
2022-09-11T05:27:17.319Z,89.20
2022-09-11T05:27:48.914Z,89.20
2022-09-11T05:28:20.470Z,89.20
2022-09-11T05:28:52.015Z,89.30
2022-09-11T05:29:23.794Z,89.20
2022-09-11T05:29:55.288Z,89.20
2022-09-11T05:30:26.864Z,89.20
2022-09-11T05:30:58.406Z,89.30
2022-09-11T05:31:29.980Z,89.20
2022-09-11T05:32:01.568Z,89.20
2022-09-11T05:32:33.119Z,89.30
2022-09-11T05:33:04.713Z,89.30
2022-09-11T05:33:36.352Z,89.30
2022-09-11T05:34:07.907Z,89.30
2022-09-11T05:34:39.472Z,89.40
2022-09-11T05:35:11.035Z,89.40
2022-09-11T05:35:42.591Z,89.30
2022-09-11T05:36:14.145Z,89.30
2022-09-11T05:36:45.729Z,89.30
2022-09-11T05:37:17.284Z,89.30
2022-09-11T05:37:48.834Z,89.30
2022-09-11T05:38:20.400Z,89.30
2022-09-11T05:38:51.958Z,89.30
2022-09-11T05:39:23.526Z,89.30
2022-09-11T05:39:55.153Z,89.40
2022-09-11T05:40:26.710Z,89.30
2022-09-11T05:40:58.276Z,89.40
2022-09-11T05:41:29.911Z,89.30
2022-09-11T05:42:01.499Z,89.40
2022-09-11T05:42:33.054Z,89.40
2022-09-11T05:43:04.599Z,89.50
2022-09-11T05:43:36.160Z,89.50
2022-09-11T05:44:07.712Z,89.40
2022-09-11T05:44:39.295Z,89.50
2022-09-11T05:45:10.887Z,89.50
2022-09-11T05:45:42.510Z,89.50
2022-09-11T05:46:14.116Z,89.40
2022-09-11T05:46:45.705Z,89.30
2022-09-11T05:47:17.248Z,89.40
2022-09-11T05:47:49.198Z,89.40
2022-09-11T05:48:22.184Z,89.30
2022-09-11T05:48:53.731Z,89.30
2022-09-11T05:49:25.281Z,89.40
2022-09-11T05:49:56.850Z,89.30
2022-09-11T05:50:28.397Z,90.00
2022-09-11T05:50:59.937Z,89.30
2022-09-11T05:51:31.490Z,89.30
2022-09-11T05:52:03.045Z,89.30
2022-09-11T05:52:34.586Z,89.30
2022-09-11T05:53:06.165Z,89.20
2022-09-11T05:53:37.731Z,89.20
2022-09-11T05:54:09.293Z,89.20
2022-09-11T05:54:40.822Z,89.30
2022-09-11T05:55:12.398Z,89.20
2022-09-11T05:55:43.946Z,89.20
2022-09-11T05:56:15.507Z,89.20
2022-09-11T05:56:47.071Z,89.20
2022-09-11T05:57:18.619Z,89.20
2022-09-11T05:57:50.159Z,89.30
2022-09-11T05:58:21.725Z,89.20
2022-09-11T05:58:53.299Z,89.20
2022-09-11T05:59:24.856Z,89.20
2022-09-11T05:59:56.460Z,89.20
2022-09-11T06:00:28.032Z,89.20
2022-09-11T06:00:59.602Z,89.20
2022-09-11T06:01:31.271Z,89.20
2022-09-11T06:02:02.908Z,89.20
2022-09-11T06:02:34.488Z,89.20
2022-09-11T06:03:06.055Z,89.20
2022-09-11T06:03:37.596Z,89.20
2022-09-11T06:04:09.145Z,89.30
2022-09-11T06:04:40.713Z,89.20
2022-09-11T06:05:12.389Z,89.20
2022-09-11T06:05:43.979Z,89.20
2022-09-11T06:06:15.562Z,89.20
2022-09-11T06:06:47.123Z,89.20
2022-09-11T06:07:18.683Z,89.20
2022-09-11T06:07:50.223Z,89.20
2022-09-11T06:08:21.771Z,89.30
2022-09-11T06:08:53.312Z,89.30
2022-09-11T06:09:24.875Z,89.20
2022-09-11T06:10:00.936Z,89.20
2022-09-11T06:10:34.448Z,89.20
2022-09-11T06:11:06.120Z,89.20
2022-09-11T06:11:37.688Z,89.20
2022-09-11T06:12:09.268Z,89.30
2022-09-11T06:12:40.820Z,89.20
2022-09-11T06:13:12.385Z,89.20
2022-09-11T06:13:44.073Z,89.30
2022-09-11T06:14:15.790Z,89.20
2022-09-11T06:14:47.354Z,89.30
2022-09-11T06:15:42.899Z,89.20
2022-09-11T06:16:11.866Z,89.20
2022-09-11T06:16:46.231Z,89.30
2022-09-11T06:17:17.826Z,89.20
2022-09-11T06:17:49.364Z,89.30
2022-09-11T06:18:20.943Z,89.30
2022-09-11T06:18:52.486Z,89.30
2022-09-11T06:19:24.050Z,89.30
2022-09-11T06:19:55.603Z,90.00
2022-09-11T06:20:27.163Z,89.20
2022-09-11T06:20:58.699Z,89.20
2022-09-11T06:21:30.280Z,89.30
2022-09-11T06:22:01.832Z,89.20
2022-09-11T06:22:33.388Z,89.20
2022-09-11T06:23:09.035Z,89.30
2022-09-11T06:23:40.878Z,89.20
2022-09-11T06:24:12.469Z,89.30
2022-09-11T06:24:44.044Z,89.30
2022-09-11T06:25:15.597Z,89.30
2022-09-11T06:25:47.150Z,89.20
2022-09-11T06:26:18.712Z,89.20
2022-09-11T06:26:50.269Z,89.20
2022-09-11T06:27:21.809Z,89.20
2022-09-11T06:27:53.369Z,89.20
2022-09-11T06:28:24.928Z,89.20
2022-09-11T06:28:56.505Z,89.20
2022-09-11T06:29:28.056Z,89.20
2022-09-11T06:29:59.655Z,89.10
2022-09-11T06:30:31.261Z,89.30
2022-09-11T06:31:02.908Z,89.20
2022-09-11T06:31:34.532Z,89.20
2022-09-11T06:32:06.099Z,89.20
2022-09-11T06:32:37.651Z,89.20
2022-09-11T06:33:09.291Z,89.20
2022-09-11T06:33:40.936Z,89.10
2022-09-11T06:34:12.612Z,89.20
2022-09-11T06:34:44.172Z,89.10
2022-09-11T06:35:15.733Z,89.10
2022-09-11T06:35:47.283Z,89.20
2022-09-11T06:36:18.840Z,89.20
2022-09-11T06:36:52.392Z,89.20
2022-09-11T06:37:24.077Z,89.20
2022-09-11T06:37:55.617Z,89.90
2022-09-11T06:38:27.182Z,89.20
2022-09-11T06:38:58.783Z,89.10
2022-09-11T06:39:30.337Z,89.20
2022-09-11T06:40:01.946Z,89.20
2022-09-11T06:40:33.578Z,89.20
2022-09-11T06:41:05.148Z,89.20
2022-09-11T06:41:36.738Z,89.20
2022-09-11T06:42:08.292Z,89.30
2022-09-11T06:42:39.847Z,89.30
2022-09-11T06:43:11.409Z,89.20
2022-09-11T06:43:43.046Z,89.20
2022-09-11T06:44:14.755Z,89.20
2022-09-11T06:44:50.531Z,89.20
2022-09-11T06:45:22.376Z,89.30
2022-09-11T06:45:53.947Z,89.20
2022-09-11T06:46:25.567Z,89.20
2022-09-11T06:46:57.140Z,89.20
2022-09-11T06:47:28.700Z,89.30